Cummings, North Dakota
Current Conditions -  °F | °C
As of 11:53 PM on Tuesday 21 Oct 2014 (Local Time) from KGFK Reporting Station
Clear Clear  
Wind Chill: 55°   Ceiling: Unl
Heat Index: 55°   Visibility: 10mi
Dew Point: 41°   Wind: 22mph
Humidity: 59%   Direction: 160°SSE
Pressure: 29.85"   Gusts: 29mph
Location:  47.51°N, 97.08°W
Report Text: KGFK 220453Z AUTO 16019G25KT 10SM CLR 13/05 A2985 RMK AO2 PK WND 16029/0401 SLP111 T01280050 TSNO
Loading
Personal Weather Stations






























Interactive Weather Map
Tropical Storm Tracking
New forecast layout! Learn more

10-Day Weather Forecast

Advertisements
Track Severe Weather on mobile